createdAt,value
2019-04-23T00:01:08.194Z,0.00
2019-04-23T00:01:59.763Z,0.00
2019-04-23T00:02:58.469Z,0.00
2019-04-23T00:03:54.844Z,0.00
2019-04-23T00:04:52.803Z,0.00
2019-04-23T00:06:02.374Z,0.00
2019-04-23T00:10:09.613Z,0.00
2019-04-23T00:10:59.222Z,0.00
2019-04-23T00:11:51.825Z,0.00
2019-04-23T00:12:52.785Z,0.00
2019-04-23T00:13:57.756Z,0.00
2019-04-23T00:15:05.159Z,0.00
2019-04-23T00:16:05.005Z,0.00
2019-04-23T00:16:57.821Z,0.00
2019-04-23T00:18:00.836Z,0.00
2019-04-23T00:21:34.609Z,0.00
2019-04-23T00:22:36.777Z,0.00
2019-04-23T00:23:38.486Z,0.00
2019-04-23T00:24:53.844Z,0.00
2019-04-23T00:29:20.924Z,0.00
2019-04-23T00:32:58.379Z,0.00
2019-04-23T00:40:11.379Z,0.00
2019-04-23T00:41:30.888Z,0.00
2019-04-23T00:42:28.321Z,0.00
2019-04-23T00:43:17.076Z,0.00
2019-04-23T00:44:21.344Z,0.00
2019-04-23T00:45:16.617Z,0.00
2019-04-23T00:46:18.722Z,0.00
2019-04-23T00:47:19.274Z,0.00
2019-04-23T00:50:05.936Z,0.00
2019-04-23T00:50:54.314Z,0.00
2019-04-23T00:51:58.746Z,0.00
2019-04-23T00:53:17.483Z,0.00
2019-04-23T00:53:56.727Z,0.00
2019-04-23T00:55:07.533Z,0.00
2019-04-23T00:56:06.638Z,0.00
2019-04-23T00:57:00.833Z,0.00
2019-04-23T00:57:59.932Z,0.00
2019-04-23T01:01:38.881Z,0.00
2019-04-23T01:02:37.436Z,0.00
2019-04-23T01:03:25.211Z,0.00
2019-04-23T01:04:36.443Z,0.00
2019-04-23T01:05:29.471Z,0.00
2019-04-23T01:06:32.475Z,0.00
2019-04-23T01:07:33.388Z,0.00
2019-04-23T01:08:29.706Z,0.00
2019-04-23T01:09:29.625Z,0.00
2019-04-23T01:10:36.748Z,0.00
2019-04-23T01:11:34.186Z,0.00
2019-04-23T01:12:38.393Z,0.00
2019-04-23T01:13:39.361Z,0.00
2019-04-23T01:14:26.245Z,0.00
2019-04-23T01:15:32.840Z,0.00
2019-04-23T01:16:31.734Z,0.00
2019-04-23T01:17:41.042Z,0.00
2019-04-23T01:18:45.285Z,0.00
2019-04-23T01:20:28.966Z,0.00
2019-04-23T01:21:09.693Z,0.00
2019-04-23T01:22:10.505Z,0.00
2019-04-23T01:23:09.606Z,0.00
2019-04-23T01:24:15.355Z,0.00
2019-04-23T01:25:20.018Z,0.00
2019-04-23T01:26:32.880Z,0.00
2019-04-23T01:27:51.362Z,0.00
2019-04-23T01:28:39.939Z,0.00
2019-04-23T01:29:39.120Z,0.00
2019-04-23T01:30:59.710Z,0.00
2019-04-23T01:31:33.252Z,0.00
2019-04-23T01:32:52.021Z,0.00
2019-04-23T01:33:38.997Z,0.00
2019-04-23T01:34:41.559Z,0.00
2019-04-23T01:35:33.153Z,0.00
2019-04-23T01:36:32.942Z,0.00
2019-04-23T01:37:36.730Z,0.00
2019-04-23T01:38:41.712Z,0.00
2019-04-23T01:41:26.764Z,0.00
2019-04-23T01:42:29.540Z,0.00
2019-04-23T01:43:38.097Z,0.00
2019-04-23T01:44:25.391Z,0.00
2019-04-23T01:46:22.030Z,0.00
2019-04-23T01:47:24.410Z,0.00
2019-04-23T01:48:23.674Z,0.00
2019-04-23T01:49:29.341Z,0.00
2019-04-23T01:54:55.403Z,0.00
2019-04-23T01:55:52.680Z,0.00
2019-04-23T01:56:47.226Z,0.00
2019-04-23T01:57:56.371Z,0.00
2019-04-23T01:58:57.617Z,0.00
2019-04-23T01:59:58.455Z,0.00
2019-04-23T02:00:47.506Z,0.00
2019-04-23T02:01:51.969Z,0.00
2019-04-23T02:04:56.950Z,0.00
2019-04-23T02:05:48.383Z,0.00
2019-04-23T02:06:55.987Z,0.00
2019-04-23T02:07:54.605Z,0.00
2019-04-23T02:08:52.210Z,0.00
2019-04-23T02:09:55.570Z,0.00
2019-04-23T02:10:58.798Z,0.00
2019-04-23T02:11:53.344Z,0.00
2019-04-23T02:12:55.655Z,0.00
2019-04-23T02:13:51.582Z,0.00
2019-04-23T02:14:49.939Z,0.00
2019-04-23T02:16:05.180Z,0.00
2019-04-23T02:17:08.067Z,0.00
2019-04-23T02:18:56.817Z,0.00
2019-04-23T02:19:55.723Z,0.00
2019-04-23T02:20:47.869Z,0.00
2019-04-23T02:25:13.381Z,0.00
2019-04-23T02:26:10.646Z,0.00
2019-04-23T02:27:13.763Z,0.00
2019-04-23T02:30:37.556Z,0.00
2019-04-23T02:31:25.297Z,0.00
2019-04-23T02:34:21.311Z,0.00
2019-04-23T02:35:17.272Z,0.00
2019-04-23T02:36:23.886Z,0.00
2019-04-23T02:37:17.853Z,0.00
2019-04-23T02:39:03.559Z,0.00
2019-04-23T02:40:20.192Z,0.00
2019-04-23T02:41:20.214Z,0.00
2019-04-23T02:43:15.121Z,0.00
2019-04-23T02:45:09.658Z,0.00
2019-04-23T02:46:33.963Z,0.00
2019-04-23T02:47:19.303Z,0.00
2019-04-23T02:51:10.797Z,0.00
2019-04-23T02:52:18.275Z,0.00
2019-04-23T02:53:27.266Z,0.00
2019-04-23T02:56:25.237Z,0.00
2019-04-23T02:57:13.963Z,0.00
2019-04-23T02:58:19.160Z,0.00
2019-04-23T02:59:21.432Z,0.00
2019-04-23T03:00:18.543Z,0.00
2019-04-23T03:01:25.284Z,0.00
2019-04-23T03:02:26.264Z,0.00
2019-04-23T03:03:13.680Z,0.00
2019-04-23T03:04:21.967Z,0.00
2019-04-23T03:05:18.820Z,0.00
2019-04-23T03:07:22.436Z,0.00
2019-04-23T03:09:17.112Z,0.00
2019-04-23T03:11:20.029Z,0.00
2019-04-23T03:12:18.360Z,0.00
2019-04-23T03:14:18.751Z,0.00
2019-04-23T03:15:21.758Z,0.00
2019-04-23T03:18:11.929Z,0.00
2019-04-23T03:19:58.878Z,0.00
2019-04-23T03:21:19.634Z,0.00
2019-04-23T03:24:02.247Z,0.00
2019-04-23T03:24:55.913Z,0.00
2019-04-23T03:27:09.810Z,0.00
2019-04-23T03:32:37.390Z,0.00
2019-04-23T03:37:58.166Z,0.00
2019-04-23T03:39:56.729Z,0.00
2019-04-23T03:41:02.523Z,0.00
2019-04-23T03:42:53.947Z,0.00
2019-04-23T03:46:00.829Z,0.00
2019-04-23T03:46:46.749Z,0.00
2019-04-23T03:48:00.797Z,0.00
2019-04-23T03:48:57.390Z,0.00
2019-04-23T03:49:55.997Z,4.00
2019-04-23T03:51:52.241Z,0.00
2019-04-23T03:54:46.190Z,4.00
2019-04-23T03:55:54.642Z,4.00
2019-04-23T03:58:08.108Z,4.00
2019-04-23T03:58:48.717Z,4.00
2019-04-23T04:03:03.755Z,12.00
2019-04-23T04:06:02.970Z,20.00
2019-04-23T04:07:05.439Z,24.00
2019-04-23T04:08:00.682Z,28.00
2019-04-23T04:08:58.313Z,32.00
2019-04-23T04:09:47.848Z,36.00
2019-04-23T04:10:52.420Z,44.00
2019-04-23T04:11:33.526Z,48.00
2019-04-23T04:13:50.493Z,64.00
2019-04-23T04:15:05.130Z,68.00
2019-04-23T04:15:58.907Z,80.00
2019-04-23T04:19:09.273Z,112.00
2019-04-23T04:19:47.785Z,128.00
2019-04-23T04:20:53.715Z,140.00
2019-04-23T04:21:49.940Z,160.00
2019-04-23T04:22:59.221Z,172.00
2019-04-23T04:23:51.233Z,192.00
2019-04-23T04:25:49.914Z,228.00
2019-04-23T04:28:51.017Z,288.00
2019-04-23T04:32:00.359Z,356.00
2019-04-23T04:37:18.487Z,488.00
2019-04-23T04:40:55.171Z,600.00
2019-04-23T04:42:06.136Z,624.00
2019-04-23T04:44:50.060Z,720.00
2019-04-23T04:47:45.630Z,820.00
2019-04-23T04:48:58.864Z,856.00
2019-04-23T04:49:55.693Z,888.00
2019-04-23T04:51:00.231Z,916.00
2019-04-23T04:54:39.337Z,1048.00
2019-04-23T04:56:49.835Z,1108.00
2019-04-23T05:00:06.815Z,1208.00
2019-04-23T05:02:01.198Z,1272.00
2019-04-23T05:03:32.825Z,1340.00
2019-04-23T05:07:48.071Z,1468.00
2019-04-23T05:09:47.701Z,1532.00
2019-04-23T05:10:55.715Z,1564.00
2019-04-23T05:11:52.330Z,1596.00
2019-04-23T05:12:52.907Z,1628.00
2019-04-23T05:15:44.301Z,1732.00
2019-04-23T05:17:55.358Z,1800.00
2019-04-23T05:18:58.035Z,1836.00
2019-04-23T05:22:49.325Z,1972.00
2019-04-23T05:23:42.943Z,2008.00
2019-04-23T05:24:41.057Z,2048.00
2019-04-23T05:25:44.950Z,2084.00
2019-04-23T05:26:33.334Z,2124.00
2019-04-23T05:27:55.257Z,2160.00
2019-04-23T05:28:51.188Z,2188.00
2019-04-23T05:29:48.595Z,2228.00
2019-04-23T05:30:46.368Z,2264.00
2019-04-23T05:31:32.841Z,2300.00
2019-04-23T05:32:43.182Z,2340.00
2019-04-23T05:33:49.286Z,2376.00
2019-04-23T05:34:40.098Z,2416.00
2019-04-23T05:37:59.408Z,2524.00
2019-04-23T05:38:51.105Z,2560.00
2019-04-23T05:39:38.103Z,2608.00
2019-04-23T05:40:45.283Z,2636.00
2019-04-23T05:41:42.060Z,2672.00
2019-04-23T05:44:43.178Z,2780.00
2019-04-23T05:45:41.330Z,2820.00
2019-04-23T05:46:49.054Z,2856.00
2019-04-23T05:47:48.218Z,2896.00
2019-04-23T05:48:37.711Z,2924.00
2019-04-23T05:49:47.542Z,2968.00
2019-04-23T05:50:53.929Z,2984.00
2019-04-23T05:51:52.652Z,3016.00
2019-04-23T05:52:45.872Z,3044.00
2019-04-23T05:55:46.056Z,3116.00
2019-04-23T05:56:38.831Z,3136.00
2019-04-23T05:57:40.375Z,3156.00
2019-04-23T05:58:48.930Z,3176.00
2019-04-23T05:59:48.516Z,3216.00
2019-04-23T06:00:50.934Z,3228.00
2019-04-23T06:02:51.733Z,3276.00
2019-04-23T06:03:42.068Z,3288.00
2019-04-23T06:04:43.065Z,3312.00
2019-04-23T06:05:49.563Z,3340.00
2019-04-23T06:07:11.350Z,3372.00
2019-04-23T06:07:42.698Z,3408.00
2019-04-23T06:08:51.637Z,3420.00
2019-04-23T06:09:41.468Z,3444.00
2019-04-23T06:10:40.633Z,3472.00
2019-04-23T06:12:42.268Z,3460.00
2019-04-23T06:13:47.707Z,3504.00
2019-04-23T06:15:49.234Z,3572.00
2019-04-23T06:16:41.622Z,3576.00
2019-04-23T06:17:44.479Z,3592.00
2019-04-23T06:18:51.623Z,3628.00
2019-04-23T06:19:33.114Z,3688.00
2019-04-23T06:20:51.760Z,3700.00
2019-04-23T06:22:42.375Z,3760.00
2019-04-23T06:23:46.456Z,3776.00
2019-04-23T06:24:41.148Z,3824.00
2019-04-23T06:27:43.210Z,3932.00
2019-04-23T06:28:41.765Z,4008.00
2019-04-23T06:29:48.066Z,3996.00
2019-04-23T06:32:41.403Z,4056.00
2019-04-23T06:33:44.959Z,4076.00
2019-04-23T06:34:42.314Z,4128.00
2019-04-23T06:35:45.459Z,4108.00
2019-04-23T06:36:38.462Z,4152.00
2019-04-23T06:38:09.016Z,4180.00
2019-04-23T06:39:44.511Z,4224.00
2019-04-23T06:40:43.568Z,4256.00
2019-04-23T06:41:44.957Z,4288.00
2019-04-23T06:42:41.018Z,4296.00
2019-04-23T06:43:46.618Z,4292.00
2019-04-23T06:44:37.663Z,4388.00
2019-04-23T06:45:40.297Z,4408.00
2019-04-23T06:46:45.926Z,4452.00
2019-04-23T06:47:40.979Z,4480.00
2019-04-23T06:48:40.712Z,4512.00
2019-04-23T06:50:45.570Z,4536.00
2019-04-23T06:51:46.602Z,4572.00
2019-04-23T06:52:31.796Z,4548.00
2019-04-23T06:53:36.339Z,4644.00
2019-04-23T06:54:45.952Z,4652.00
2019-04-23T06:55:42.287Z,4688.00
2019-04-23T06:56:43.256Z,4724.00
2019-04-23T06:57:33.331Z,4752.00
2019-04-23T06:58:37.350Z,4732.00
2019-04-23T06:59:39.578Z,4740.00
2019-04-23T07:00:42.776Z,4708.00
2019-04-23T07:01:51.043Z,4660.00
2019-04-23T07:02:37.567Z,4664.00
2019-04-23T07:03:45.205Z,4716.00
2019-04-23T07:04:43.490Z,4784.00
2019-04-23T07:05:40.957Z,4840.00
2019-04-23T07:09:04.416Z,4736.00
2019-04-23T07:09:35.722Z,4788.00
2019-04-23T07:10:42.296Z,4860.00
2019-04-23T07:11:51.274Z,4936.00
2019-04-23T07:12:41.410Z,4948.00
2019-04-23T07:13:49.152Z,5016.00
2019-04-23T07:14:46.284Z,5096.00
2019-04-23T07:16:38.534Z,5156.00
2019-04-23T07:17:36.157Z,5228.00
2019-04-23T07:18:38.023Z,5260.00
2019-04-23T07:20:40.331Z,5316.00
2019-04-23T07:21:35.315Z,5348.00
2019-04-23T07:22:41.379Z,5400.00
2019-04-23T07:23:45.661Z,5428.00
2019-04-23T07:24:45.325Z,5424.00
2019-04-23T07:25:41.764Z,5416.00
2019-04-23T07:27:37.078Z,5480.00
2019-04-23T07:28:48.560Z,5528.00
2019-04-23T07:29:50.082Z,5548.00
2019-04-23T07:30:38.446Z,5536.00
2019-04-23T07:31:53.991Z,5536.00
2019-04-23T07:32:38.918Z,5556.00
2019-04-23T07:33:45.931Z,5568.00
2019-04-23T07:34:46.937Z,5588.00
2019-04-23T07:35:41.686Z,5664.00
2019-04-23T07:37:40.291Z,5612.00
2019-04-23T07:38:47.334Z,5584.00
2019-04-23T07:40:12.991Z,5548.00
2019-04-23T07:40:43.035Z,5704.00
2019-04-23T07:42:58.294Z,5816.00
2019-04-23T07:43:39.780Z,5800.00
2019-04-23T07:44:42.467Z,5820.00
2019-04-23T07:45:45.409Z,5796.00
2019-04-23T07:46:48.176Z,5784.00
2019-04-23T07:47:37.970Z,5796.00
2019-04-23T07:48:30.492Z,5712.00
2019-04-23T07:49:41.459Z,5728.00
2019-04-23T07:51:35.672Z,5656.00
2019-04-23T07:52:41.493Z,5432.00
2019-04-23T07:53:37.911Z,5528.00
2019-04-23T07:56:41.908Z,5676.00
2019-04-23T07:57:40.121Z,5768.00
2019-04-23T07:58:33.274Z,5824.00
2019-04-23T07:59:44.961Z,5820.00
2019-04-23T08:00:47.179Z,5800.00
2019-04-23T08:01:34.861Z,5736.00
2019-04-23T08:02:38.405Z,5672.00
2019-04-23T08:03:36.584Z,5592.00
2019-04-23T08:04:46.187Z,5620.00
2019-04-23T08:05:49.524Z,5700.00
2019-04-23T08:06:37.594Z,5872.00
2019-04-23T08:08:37.999Z,6084.00
2019-04-23T08:09:43.653Z,6108.00
2019-04-23T08:10:46.568Z,6140.00
2019-04-23T08:12:40.205Z,6304.00
2019-04-23T08:14:44.217Z,6420.00
2019-04-23T08:16:36.702Z,6492.00
2019-04-23T08:17:34.594Z,6428.00
2019-04-23T08:18:46.333Z,6372.00
2019-04-23T08:20:42.014Z,6428.00
2019-04-23T08:21:32.092Z,6472.00
2019-04-23T08:22:39.394Z,6460.00
2019-04-23T08:23:47.302Z,6480.00
2019-04-23T08:24:45.298Z,6504.00
2019-04-23T08:25:47.258Z,6504.00
2019-04-23T08:26:42.499Z,6516.00
2019-04-23T08:27:35.242Z,6512.00
2019-04-23T08:28:52.093Z,6516.00
2019-04-23T08:29:54.431Z,6520.00
2019-04-23T08:30:42.254Z,6516.00
2019-04-23T08:32:27.857Z,6512.00
2019-04-23T08:33:46.216Z,6504.00
2019-04-23T08:34:44.889Z,6476.00
2019-04-23T08:36:40.747Z,6540.00
2019-04-23T08:38:01.478Z,6524.00
2019-04-23T08:38:35.943Z,6496.00
2019-04-23T08:39:38.619Z,6492.00
2019-04-23T08:40:49.180Z,6512.00
2019-04-23T08:41:46.154Z,6572.00
2019-04-23T08:43:51.754Z,6608.00
2019-04-23T08:45:31.317Z,6620.00
2019-04-23T08:46:43.399Z,6632.00
2019-04-23T08:47:33.126Z,6628.00
2019-04-23T08:49:43.615Z,6608.00
2019-04-23T08:50:40.331Z,6636.00
2019-04-23T08:51:44.082Z,6552.00
2019-04-23T08:52:38.301Z,6612.00
2019-04-23T08:54:52.007Z,6740.00
2019-04-23T08:55:38.423Z,6804.00
2019-04-23T08:56:46.128Z,6944.00
2019-04-23T08:57:32.155Z,7012.00
2019-04-23T08:58:47.462Z,6980.00
2019-04-23T08:59:48.650Z,7004.00
2019-04-23T09:00:42.451Z,7068.00
2019-04-23T09:01:47.797Z,7112.00
2019-04-23T09:02:41.043Z,7136.00
2019-04-23T09:03:45.806Z,7180.00
2019-04-23T09:04:40.054Z,7176.00
2019-04-23T09:05:38.184Z,7208.00
2019-04-23T09:06:35.363Z,7224.00
2019-04-23T09:07:37.552Z,7200.00
2019-04-23T09:09:45.436Z,7288.00
2019-04-23T09:10:46.494Z,7224.00
2019-04-23T09:11:45.785Z,7268.00
2019-04-23T09:12:44.311Z,7312.00
2019-04-23T09:14:42.121Z,7304.00
2019-04-23T09:15:48.283Z,7036.00
2019-04-23T09:16:36.161Z,7224.00
2019-04-23T09:17:45.576Z,7220.00
2019-04-23T09:18:33.879Z,6884.00
2019-04-23T09:19:46.017Z,6828.00
2019-04-23T09:20:31.356Z,6888.00
2019-04-23T09:21:33.006Z,7100.00
2019-04-23T09:23:40.881Z,7160.00
2019-04-23T09:24:43.134Z,7152.00
2019-04-23T09:25:40.685Z,7116.00
2019-04-23T09:26:33.019Z,7156.00
2019-04-23T09:27:41.912Z,7172.00
2019-04-23T09:28:45.403Z,7176.00
2019-04-23T09:29:49.223Z,7164.00
2019-04-23T09:30:32.195Z,7288.00
2019-04-23T09:32:00.580Z,7388.00
2019-04-23T09:33:52.219Z,7096.00
2019-04-23T09:34:38.724Z,7184.00
2019-04-23T09:35:38.964Z,7204.00
2019-04-23T09:36:40.535Z,7028.00
2019-04-23T09:37:40.390Z,6760.00
2019-04-23T09:38:32.998Z,6612.00
2019-04-23T09:40:41.694Z,6976.00
2019-04-23T09:41:42.359Z,6592.00
2019-04-23T09:42:38.426Z,6144.00
2019-04-23T09:43:33.145Z,6164.00
2019-04-23T09:44:56.616Z,6420.00
2019-04-23T09:46:55.756Z,6404.00
2019-04-23T09:47:38.099Z,6180.00
2019-04-23T09:48:41.999Z,6020.00
2019-04-23T09:49:39.545Z,5904.00
2019-04-23T09:50:38.420Z,5808.00
2019-04-23T09:51:35.820Z,5760.00
2019-04-23T09:52:43.167Z,5732.00
2019-04-23T09:53:33.911Z,5680.00
2019-04-23T09:54:39.911Z,5692.00
2019-04-23T09:56:41.430Z,5700.00
2019-04-23T09:57:36.073Z,5744.00
2019-04-23T09:58:30.033Z,5776.00
2019-04-23T09:59:39.460Z,5888.00
2019-04-23T10:00:36.398Z,5852.00
2019-04-23T10:02:27.299Z,5932.00
2019-04-23T10:03:21.163Z,6020.00
2019-04-23T10:04:23.776Z,6108.00
2019-04-23T10:05:22.179Z,6124.00
2019-04-23T10:06:14.877Z,6288.00
2019-04-23T10:07:23.853Z,6436.00
2019-04-23T10:08:16.184Z,6512.00
2019-04-23T10:09:10.133Z,6532.00
2019-04-23T10:10:08.137Z,6676.00
2019-04-23T10:11:09.290Z,6796.00
2019-04-23T10:12:09.412Z,6936.00
2019-04-23T10:13:08.263Z,7016.00
2019-04-23T10:14:08.304Z,7096.00
2019-04-23T10:15:13.777Z,7152.00
2019-04-23T10:16:11.700Z,7240.00
2019-04-23T10:17:08.433Z,7412.00
2019-04-23T10:18:07.921Z,7532.00
2019-04-23T10:19:08.000Z,7652.00
2019-04-23T10:20:08.696Z,7788.00
2019-04-23T10:21:07.832Z,7828.00
2019-04-23T10:22:09.082Z,7968.00
2019-04-23T10:23:08.357Z,8040.00
2019-04-23T10:24:07.599Z,8148.00
2019-04-23T10:25:08.752Z,8220.00
2019-04-23T10:26:07.906Z,8340.00
2019-04-23T10:27:08.384Z,8392.00
2019-04-23T10:28:10.895Z,8568.00
2019-04-23T10:29:07.753Z,8624.00
2019-04-23T10:30:08.149Z,8792.00
2019-04-23T10:31:08.925Z,8904.00
2019-04-23T10:32:07.571Z,8912.00
2019-04-23T10:33:07.535Z,9008.00
2019-04-23T10:34:08.250Z,9160.00
2019-04-23T10:35:20.430Z,9276.00
2019-04-23T10:36:12.858Z,9400.00
2019-04-23T10:37:07.350Z,9536.00
2019-04-23T10:38:10.764Z,9740.00
2019-04-23T10:39:11.797Z,9828.00
2019-04-23T10:40:12.744Z,9932.00
2019-04-23T10:41:07.081Z,9936.00
2019-04-23T10:42:07.925Z,9968.00
2019-04-23T10:43:07.489Z,9960.00
2019-04-23T10:44:07.170Z,10048.00
2019-04-23T10:45:20.742Z,10104.00
2019-04-23T10:46:27.914Z,10196.00
2019-04-23T10:47:32.347Z,10184.00
2019-04-23T10:48:49.593Z,10276.00
2019-04-23T10:50:43.123Z,10188.00
2019-04-23T10:52:30.850Z,10356.00
2019-04-23T10:53:37.991Z,10280.00
2019-04-23T10:55:44.728Z,10312.00
2019-04-23T10:56:42.942Z,10276.00
2019-04-23T10:57:44.345Z,10276.00
2019-04-23T10:58:36.803Z,10368.00
2019-04-23T10:59:35.719Z,10516.00
2019-04-23T11:00:35.842Z,10468.00
2019-04-23T11:01:36.572Z,10452.00
2019-04-23T11:05:47.403Z,10556.00
2019-04-23T11:06:41.368Z,10512.00
2019-04-23T11:08:51.851Z,10676.00
2019-04-23T11:09:52.364Z,10724.00
2019-04-23T11:10:33.192Z,10796.00
2019-04-23T11:11:40.746Z,10988.00
2019-04-23T11:14:53.660Z,11004.00
2019-04-23T11:16:49.272Z,10984.00
2019-04-23T11:17:38.720Z,10932.00
2019-04-23T11:18:46.859Z,11012.00
2019-04-23T11:19:45.836Z,10912.00
2019-04-23T11:20:35.421Z,10972.00
2019-04-23T11:21:33.906Z,11028.00
2019-04-23T11:23:34.341Z,10976.00
2019-04-23T11:24:48.858Z,11048.00
2019-04-23T11:25:34.931Z,10948.00
2019-04-23T11:26:37.067Z,10860.00
2019-04-23T11:27:36.245Z,10912.00
2019-04-23T11:28:33.245Z,10784.00
2019-04-23T11:29:40.400Z,10560.00
2019-04-23T11:31:48.773Z,10500.00
2019-04-23T11:32:46.638Z,10560.00
2019-04-23T11:33:39.232Z,10720.00
2019-04-23T11:34:56.413Z,10724.00
2019-04-23T11:37:54.678Z,10876.00
2019-04-23T11:38:22.124Z,10676.00
2019-04-23T11:38:49.113Z,11176.00
2019-04-23T11:39:37.464Z,11300.00
2019-04-23T11:40:33.188Z,11524.00
2019-04-23T11:42:38.822Z,11980.00
2019-04-23T11:43:33.029Z,12076.00
2019-04-23T11:44:45.835Z,12312.00
2019-04-23T11:45:40.410Z,12412.00
2019-04-23T11:46:45.686Z,12472.00
2019-04-23T11:48:14.206Z,12476.00
2019-04-23T11:48:52.343Z,12808.00
2019-04-23T11:51:46.083Z,13540.00
2019-04-23T11:52:41.657Z,13300.00
2019-04-23T11:53:51.059Z,13060.00
2019-04-23T11:57:13.095Z,13168.00
2019-04-23T11:57:49.082Z,13204.00
2019-04-23T11:58:37.634Z,13012.00
2019-04-23T11:59:35.881Z,12552.00
2019-04-23T12:00:42.040Z,12444.00
2019-04-23T12:02:38.553Z,12580.00
2019-04-23T12:03:37.707Z,12488.00
2019-04-23T12:04:40.621Z,12356.00
2019-04-23T12:05:48.203Z,12264.00
2019-04-23T12:06:30.164Z,11876.00
2019-04-23T12:08:41.429Z,11916.00
2019-04-23T12:09:40.110Z,11884.00
2019-04-23T12:12:33.411Z,11948.00
2019-04-23T12:13:35.399Z,11868.00
2019-04-23T12:14:47.215Z,11856.00
2019-04-23T12:15:37.552Z,11804.00
2019-04-23T12:16:38.450Z,11812.00
2019-04-23T12:17:31.702Z,11656.00
2019-04-23T12:19:52.965Z,11732.00
2019-04-23T12:20:33.438Z,11664.00
2019-04-23T12:21:37.990Z,11768.00
2019-04-23T12:22:38.927Z,12000.00
2019-04-23T12:23:43.539Z,11988.00
2019-04-23T12:24:58.202Z,12056.00
2019-04-23T12:25:40.701Z,12340.00
2019-04-23T12:26:42.501Z,12628.00
2019-04-23T12:27:52.224Z,12788.00
2019-04-23T12:28:40.271Z,13020.00
2019-04-23T12:29:50.750Z,13236.00
2019-04-23T12:31:47.107Z,13796.00
2019-04-23T12:33:36.142Z,14344.00
2019-04-23T12:34:36.311Z,14492.00
2019-04-23T12:35:29.218Z,14656.00
2019-04-23T12:36:36.958Z,14804.00
2019-04-23T12:37:35.090Z,14688.00
2019-04-23T12:38:33.294Z,14804.00
2019-04-23T12:39:34.093Z,14948.00
2019-04-23T12:41:41.705Z,15568.00
2019-04-23T12:42:59.032Z,15968.00
2019-04-23T12:43:47.028Z,15968.00
2019-04-23T12:44:40.527Z,16000.00
2019-04-23T12:45:33.993Z,16704.00
2019-04-23T12:46:38.150Z,17024.00
2019-04-23T12:47:43.604Z,17344.00
2019-04-23T12:49:53.090Z,17216.00
2019-04-23T12:50:45.536Z,17056.00
2019-04-23T12:52:35.909Z,16928.00
2019-04-23T12:54:38.460Z,16640.00
2019-04-23T12:55:39.074Z,16352.00
2019-04-23T12:56:43.747Z,16032.00
2019-04-23T12:57:34.478Z,15808.00
2019-04-23T12:58:50.892Z,15556.00
2019-04-23T12:59:42.150Z,15472.00
2019-04-23T13:00:33.950Z,15904.00
2019-04-23T13:01:46.973Z,16096.00
2019-04-23T13:02:39.792Z,15840.00
2019-04-23T13:04:38.285Z,15340.00
2019-04-23T13:05:31.350Z,15352.00
2019-04-23T13:06:27.672Z,15104.00
2019-04-23T13:07:43.555Z,15088.00
2019-04-23T13:11:34.852Z,14844.00
2019-04-23T13:12:44.895Z,15020.00
2019-04-23T13:14:43.678Z,15020.00
2019-04-23T13:15:29.325Z,14928.00
2019-04-23T13:16:39.897Z,14820.00
2019-04-23T13:17:46.901Z,14836.00
2019-04-23T13:18:34.558Z,14976.00
2019-04-23T13:19:36.901Z,14936.00
2019-04-23T13:21:52.209Z,15096.00
2019-04-23T13:24:34.568Z,15604.00
2019-04-23T13:25:34.953Z,15872.00
2019-04-23T13:26:26.299Z,15688.00
2019-04-23T13:27:42.397Z,15728.00
2019-04-23T13:28:33.732Z,15692.00
2019-04-23T13:29:38.254Z,15684.00
2019-04-23T13:31:30.013Z,15248.00
2019-04-23T13:32:38.847Z,15328.00
2019-04-23T13:34:41.475Z,14960.00
2019-04-23T13:35:53.649Z,14960.00
2019-04-23T13:36:41.763Z,15132.00
2019-04-23T13:37:35.406Z,15068.00
2019-04-23T13:39:35.326Z,14960.00
2019-04-23T13:41:42.077Z,14880.00
2019-04-23T13:42:40.940Z,14872.00
2019-04-23T13:44:34.330Z,15512.00
2019-04-23T13:45:59.243Z,16064.00
2019-04-23T13:46:28.812Z,16448.00
2019-04-23T13:47:46.854Z,16576.00
2019-04-23T13:48:26.213Z,16704.00
2019-04-23T13:49:37.749Z,16768.00
2019-04-23T13:53:04.914Z,16832.00
2019-04-23T13:54:17.296Z,16832.00
2019-04-23T13:55:26.670Z,16640.00
2019-04-23T13:56:53.812Z,16384.00
2019-04-23T13:58:32.867Z,16448.00
2019-04-23T13:59:39.767Z,16480.00
2019-04-23T14:01:40.038Z,16704.00
2019-04-23T14:02:40.502Z,16800.00
2019-04-23T14:03:35.694Z,16800.00
2019-04-23T14:05:38.656Z,17152.00
2019-04-23T14:07:38.469Z,17248.00
2019-04-23T14:08:50.459Z,17088.00
2019-04-23T14:10:44.885Z,17152.00
2019-04-23T14:11:29.495Z,17056.00
2019-04-23T14:12:31.966Z,17504.00
2019-04-23T14:14:43.711Z,18112.00
2019-04-23T14:15:42.548Z,18112.00
2019-04-23T14:16:34.374Z,18112.00
2019-04-23T14:18:02.781Z,18400.00
2019-04-23T14:19:28.011Z,19424.00
2019-04-23T14:21:34.646Z,19456.00
2019-04-23T14:22:53.935Z,20192.00
2019-04-23T14:24:38.064Z,21728.00
2019-04-23T14:25:34.530Z,22496.00
2019-04-23T14:28:37.721Z,24512.00
2019-04-23T14:29:41.269Z,24480.00
2019-04-23T14:30:37.874Z,24000.00
2019-04-23T14:31:31.207Z,24576.00
2019-04-23T14:32:29.168Z,25856.00
2019-04-23T14:33:54.879Z,27296.00
2019-04-23T14:34:37.679Z,27072.00
2019-04-23T14:37:33.066Z,24512.00
2019-04-23T14:38:40.065Z,25280.00
2019-04-23T14:40:40.043Z,25184.00
2019-04-23T14:42:07.143Z,25888.00
2019-04-23T14:43:31.448Z,24544.00
2019-04-23T14:44:25.274Z,23072.00
2019-04-23T14:46:45.542Z,21376.00
2019-04-23T14:47:50.872Z,20480.00
2019-04-23T14:48:29.919Z,21248.00
2019-04-23T14:50:12.526Z,20704.00
2019-04-23T14:55:05.326Z,20224.00
2019-04-23T14:56:41.956Z,20288.00
2019-04-23T14:57:45.343Z,20448.00
2019-04-23T14:58:50.785Z,20736.00
2019-04-23T14:59:19.847Z,20896.00
2019-04-23T15:00:37.651Z,20992.00
2019-04-23T15:02:36.704Z,21504.00
2019-04-23T15:03:40.174Z,21664.00
2019-04-23T15:04:36.093Z,20736.00
2019-04-23T15:05:36.215Z,20448.00
2019-04-23T15:06:37.941Z,20256.00
2019-04-23T15:07:34.569Z,20928.00
2019-04-23T15:08:39.930Z,20704.00
2019-04-23T15:09:36.862Z,20256.00
2019-04-23T15:10:32.205Z,20704.00
2019-04-23T15:12:30.424Z,20000.00
2019-04-23T15:13:28.306Z,19296.00
2019-04-23T15:14:33.878Z,19136.00
2019-04-23T15:16:30.806Z,18880.00
2019-04-23T15:17:28.545Z,18656.00
2019-04-23T15:18:39.397Z,18272.00
2019-04-23T15:19:36.830Z,17888.00
2019-04-23T15:20:30.663Z,17568.00
2019-04-23T15:22:30.353Z,17184.00
2019-04-23T15:23:41.617Z,17248.00
2019-04-23T15:25:38.114Z,17440.00
2019-04-23T15:27:48.517Z,17376.00
2019-04-23T15:28:03.504Z,18688.00
2019-04-23T15:28:09.038Z,18336.00
2019-04-23T15:29:16.895Z,18496.00
2019-04-23T15:30:20.817Z,19200.00
2019-04-23T15:31:33.599Z,19808.00
2019-04-23T15:32:34.636Z,20832.00
2019-04-23T15:33:37.090Z,21504.00
2019-04-23T15:34:23.167Z,22816.00
2019-04-23T15:36:47.010Z,25504.00
2019-04-23T15:37:42.994Z,26560.00
2019-04-23T15:38:45.455Z,28192.00
2019-04-23T15:39:32.722Z,30336.00
2019-04-23T15:40:25.174Z,33888.00
2019-04-23T15:42:50.774Z,36832.00
2019-04-23T15:43:30.444Z,36224.00
2019-04-23T15:44:23.145Z,37504.00
2019-04-23T15:45:28.481Z,37888.00
2019-04-23T15:46:32.546Z,36896.00
2019-04-23T15:47:32.560Z,36416.00
2019-04-23T15:48:33.622Z,36128.00
2019-04-23T15:49:28.865Z,36224.00
2019-04-23T15:51:35.510Z,35712.00
2019-04-23T15:53:24.087Z,37792.00
2019-04-23T15:54:34.936Z,33856.00
2019-04-23T15:55:29.521Z,29440.00
2019-04-23T15:57:49.648Z,27328.00
2019-04-23T15:58:37.261Z,27904.00
2019-04-23T16:00:26.982Z,29696.00
2019-04-23T16:01:34.554Z,30880.00
2019-04-23T16:02:01.350Z,31072.00
2019-04-23T16:03:01.226Z,28480.00
2019-04-23T16:04:01.478Z,28768.00
2019-04-23T16:05:01.188Z,29920.00
2019-04-23T16:06:02.527Z,30176.00
2019-04-23T16:07:02.422Z,28992.00
2019-04-23T16:08:18.200Z,28832.00
2019-04-23T16:09:33.584Z,29280.00
2019-04-23T16:11:45.478Z,26592.00
2019-04-23T16:12:27.769Z,24576.00
2019-04-23T16:13:29.092Z,24032.00
2019-04-23T16:15:27.062Z,16928.00
2019-04-23T16:17:30.495Z,15116.00